Time;durP1;ratioP1;P1;durP2;ratioP2;P2;SDS_P1;SDS_P2;PMS_P1;PMS_P2;Temp;Humidity;BMP_temperature;BMP_pressure;BME280_temperature;BME280_humidity;BME280_pressure;Samples;Min_cycle;Max_cycle;Signal;HPM_P1;HPM_P2
2024/01/30 00:02:17;;;;;;;;;24.33;20.00;;;;;10.16;100.00;102575.88;5081440;27;45336;-79
2024/01/30 00:04:42;;;;;;;;;17.00;16.00;;;;;10.22;100.00;102588.13;5100461;27;45307;-78
2024/01/30 00:07:08;;;;;;;;;27.33;20.67;;;;;10.22;100.00;102604.00;5104741;27;45529;-78
2024/01/30 00:09:33;;;;;;;;;20.00;18.00;;;;;10.17;100.00;102577.66;5081232;27;46450;-79
2024/01/30 00:11:59;;;;;;;;;24.00;22.00;;;;;10.22;100.00;102586.34;5063150;27;45530;-78
2024/01/30 00:14:24;;;;;;;;;22.00;20.00;;;;;10.17;100.00;102579.41;5080577;27;45352;-78
2024/01/30 00:16:50;;;;;;;;;27.33;23.67;;;;;9.78;100.00;102522.78;5063234;27;45530;-78
2024/01/30 00:19:18;;;;;;;;;28.67;22.67;;;;;9.81;100.00;102515.66;5065908;27;46278;-78
2024/01/30 00:21:44;;;;;;;;;25.00;17.00;;;;;9.83;100.00;102561.44;5088593;27;45309;-77
2024/01/30 00:24:09;;;;;;;;;21.33;18.00;;;;;10.23;100.00;102592.53;5083565;27;45536;-78
2024/01/30 00:26:34;;;;;;;;;16.67;16.67;;;;;10.19;100.00;102597.00;5085854;27;45510;-77
2024/01/30 00:29:00;;;;;;;;;16.67;16.00;;;;;10.17;100.00;102593.50;5087543;27;46058;-78
2024/01/30 00:31:25;;;;;;;;;27.67;23.33;;;;;10.00;100.00;102562.91;5087404;27;45426;-78
2024/01/30 00:33:51;;;;;;;;;23.67;21.67;;;;;10.24;100.00;102599.56;5078443;27;45369;-78
2024/01/30 00:36:16;;;;;;;;;22.00;18.67;;;;;10.14;100.00;102582.09;5091663;27;45411;-78
2024/01/30 00:38:42;;;;;;;;;24.67;18.33;;;;;10.12;100.00;102584.72;5095972;27;45325;-79
2024/01/30 00:41:10;;;;;;;;;20.33;18.00;;;;;10.18;100.00;102594.34;5076168;27;45360;-79
2024/01/30 00:43:36;;;;;;;;;24.00;19.67;;;;;10.23;100.00;102605.75;5079952;27;45323;-79
2024/01/30 00:46:01;;;;;;;;;28.33;17.00;;;;;10.22;100.00;102594.28;5060880;28;45471;-79
2024/01/30 00:48:27;;;;;;;;;17.67;17.67;;;;;10.13;100.00;102593.53;5062985;28;45381;-79
2024/01/30 00:50:52;;;;;;;;;29.00;22.67;;;;;10.11;100.00;102582.97;5064823;27;45367;-79
2024/01/30 00:53:18;;;;;;;;;21.33;21.33;;;;;10.03;100.00;102560.22;5072705;28;45564;-79
2024/01/30 00:55:43;;;;;;;;;20.00;19.00;;;;;10.14;100.00;102587.41;5068978;27;45439;-79
2024/01/30 00:58:09;;;;;;;;;20.33;20.33;;;;;10.11;100.00;102590.91;5072351;27;46470;-79
2024/01/30 01:00:34;;;;;;;;;25.00;21.33;;;;;10.13;100.00;102594.41;5073746;28;45325;-79
2024/01/30 01:03:00;;;;;;;;;22.67;22.00;;;;;10.18;100.00;102603.16;5073285;27;45423;-79
2024/01/30 01:05:28;;;;;;;;;24.33;21.00;;;;;10.19;100.00;102614.63;5076176;27;45473;-79
2024/01/30 01:07:53;;;;;;;;;22.00;19.67;;;;;10.02;100.00;102579.63;5059231;28;46883;-79
2024/01/30 01:10:19;;;;;;;;;24.33;22.67;;;;;9.81;100.00;102546.50;5075625;28;45229;-79
2024/01/30 01:12:45;;;;;;;;;24.00;20.67;;;;;10.16;100.00;102598.81;5094676;27;45415;-79
2024/01/30 01:15:10;;;;;;;;;26.67;22.67;;;;;10.04;100.00;102575.19;5078520;27;45568;-79
2024/01/30 01:17:37;;;;;;;;;27.33;23.33;;;;;9.99;100.00;102569.09;5086534;27;47006;-79
2024/01/30 01:20:05;;;;;;;;;22.33;21.33;;;;;10.12;100.00;102590.03;5087539;27;45352;-79
2024/01/30 01:22:31;;;;;;;;;23.75;23.75;;;;;9.92;100.00;102576.25;5094338;27;45368;-79
2024/01/30 01:24:56;;;;;;;;;21.67;19.67;;;;;10.10;100.00;102585.66;5079872;27;45578;-79
2024/01/30 01:27:21;;;;;;;;;22.67;20.00;;;;;9.94;100.00;102561.25;5080913;27;45304;-79
2024/01/30 01:29:47;;;;;;;;;28.33;22.33;;;;;10.12;100.00;102591.78;5079889;27;45304;-78
2024/01/30 01:32:12;;;;;;;;;29.00;21.67;;;;;9.95;100.00;102557.69;5078416;28;45365;-79
2024/01/30 01:34:38;;;;;;;;;20.67;19.67;;;;;9.98;100.00;102565.56;5078753;27;45264;-79
2024/01/30 01:37:03;;;;;;;;;22.33;18.67;;;;;9.92;100.00;102560.41;5093655;27;47180;-79
2024/01/30 01:39:29;;;;;;;;;22.33;19.33;;;;;10.11;100.00;102577.69;5078644;28;45472;-79
2024/01/30 01:41:54;;;;;;;;;21.33;18.00;;;;;10.13;100.00;102573.28;5078815;27;45311;-79
2024/01/30 01:44:19;;;;;;;;;13.33;12.00;;;;;10.24;100.00;102589.00;5077926;27;45263;-78
2024/01/30 01:46:45;;;;;;;;;19.67;15.33;;;;;10.26;100.00;102576.59;5094108;27;52604;-78
2024/01/30 01:49:11;;;;;;;;;14.67;14.00;;;;;10.16;100.00;102556.50;5078180;27;45415;-78
2024/01/30 01:51:41;;;;;;;;;18.00;15.00;;;;;10.18;100.00;102562.63;5076864;27;45525;-79
2024/01/30 01:54:07;;;;;;;;;9.00;8.00;;;;;10.24;100.00;102576.63;5074195;28;45351;-78
2024/01/30 01:56:34;;;;;;;;;17.33;16.00;;;;;10.24;100.00;102578.41;5074876;27;46341;-79
2024/01/30 01:59:05;;;;;;;;;10.67;10.33;;;;;10.01;100.00;102546.16;5073934;28;45386;-79
2024/01/30 02:01:32;;;;;;;;;11.67;11.67;;;;;10.09;100.00;102554.81;5078528;27;45457;-79
2024/01/30 02:03:58;;;;;;;;;23.67;16.67;;;;;10.22;100.00;102583.72;5077735;28;45477;-79
2024/01/30 02:06:24;;;;;;;;;16.33;12.67;;;;;10.10;100.00;102573.31;5073439;28;45414;-79
2024/01/30 02:08:49;;;;;;;;;12.67;7.67;;;;;9.86;100.00;102532.31;5069704;27;45323;-79
2024/01/30 02:11:16;;;;;;;;;14.00;13.67;;;;;10.17;100.00;102587.34;5086296;27;45477;-79
2024/01/30 02:13:42;;;;;;;;;16.00;15.00;;;;;10.00;100.00;102568.22;5099039;27;45419;-78
2024/01/30 02:16:07;;;;;;;;;14.00;11.00;;;;;9.95;100.00;102550.66;5085254;27;46655;-78
2024/01/30 02:18:32;;;;;;;;;12.00;12.00;;;;;10.07;100.00;102597.16;5099987;27;57111;-79
2024/01/30 02:21:01;;;;;;;;;14.00;11.00;;;;;10.07;100.00;102565.44;5088136;27;45415;-79
2024/01/30 02:23:27;;;;;;;;;9.67;9.67;;;;;9.95;100.00;102541.84;5102964;27;45498;-78
2024/01/30 02:25:53;;;;;;;;;12.33;8.00;;;;;10.05;100.00;102555.78;5074945;27;45337;-78
2024/01/30 02:28:19;;;;;;;;;16.67;15.67;;;;;10.07;100.00;102564.56;5105300;27;45267;-78
2024/01/30 02:30:45;;;;;;;;;11.67;11.00;;;;;10.01;100.00;102564.69;5085755;27;45265;-78
2024/01/30 02:33:10;;;;;;;;;11.33;11.00;;;;;9.93;100.00;102551.56;5095213;27;45462;-78
2024/01/30 02:35:36;;;;;;;;;13.67;13.67;;;;;9.83;100.00;102531.47;5083047;27;46923;-79
2024/01/30 02:38:03;;;;;;;;;12.00;12.00;;;;;10.03;100.00;102568.16;5093964;27;45362;-78
2024/01/30 02:40:29;;;;;;;;;10.00;10.00;;;;;10.07;100.00;102575.16;5081750;27;45467;-79
2024/01/30 02:42:54;;;;;;;;;10.67;10.67;;;;;10.07;100.00;102578.66;5082090;27;45456;-78
2024/01/30 02:45:19;;;;;;;;;17.67;12.33;;;;;10.01;100.00;102581.41;5089332;27;52809;-78
2024/01/30 02:47:45;;;;;;;;;15.33;11.33;;;;;10.00;100.00;102595.53;5099582;27;45419;-78
2024/01/30 02:50:11;;;;;;;;;11.00;11.00;;;;;9.85;100.00;102564.91;5099530;27;45479;-79
2024/01/30 02:52:36;;;;;;;;;11.00;10.00;;;;;9.66;100.00;102531.75;5075433;27;45314;-78
2024/01/30 02:55:02;;;;;;;;;14.67;12.33;;;;;9.82;100.00;102549.09;5092101;27;48219;-79
2024/01/30 02:57:28;;;;;;;;;12.00;10.67;;;;;9.46;100.00;102491.56;5099525;27;45334;-79
2024/01/30 02:59:53;;;;;;;;;14.00;12.67;;;;;9.62;100.00;102550.34;5097181;27;45403;-79
2024/01/30 03:02:19;;;;;;;;;10.67;10.00;;;;;9.72;100.00;102547.50;5099497;27;45599;-79
2024/01/30 03:04:44;;;;;;;;;12.00;9.00;;;;;9.78;100.00;102549.19;5092469;27;46281;-79
2024/01/30 03:07:15;;;;;;;;;14.33;12.67;;;;;9.43;100.00;102507.47;5090034;27;45309;-79
2024/01/30 03:09:44;;;;;;;;;10.67;10.67;;;;;9.55;100.00;102531.06;5095201;27;45438;-78
2024/01/30 03:12:10;;;;;;;;;12.33;11.00;;;;;9.30;100.00;102497.97;5067281;27;45524;-78
2024/01/30 03:14:35;;;;;;;;;10.33;10.33;;;;;9.09;100.00;102469.28;5061686;28;46232;-78
2024/01/30 03:17:00;;;;;;;;;12.67;10.00;;;;;9.02;100.00;102446.50;5074600;27;45836;-78
2024/01/30 03:19:26;;;;;;;;;12.67;10.67;;;;;9.35;100.00;102522.56;5085468;27;45498;-78
2024/01/30 03:21:51;;;;;;;;;11.00;11.00;;;;;9.34;100.00;102512.88;5084788;27;45340;-78
2024/01/30 03:24:17;;;;;;;;;11.00;11.00;;;;;9.67;100.00;102545.84;5082675;27;46489;-79
2024/01/30 03:26:43;;;;;;;;;9.00;9.00;;;;;9.08;100.00;102473.66;5086409;27;45387;-78
2024/01/30 03:29:08;;;;;;;;;15.00;10.67;;;;;9.37;100.00;102511.06;5088185;27;45479;-78
2024/01/30 03:31:34;;;;;;;;;15.00;12.00;;;;;9.09;100.00;102456.94;5087627;27;45422;-78
2024/01/30 03:34:00;;;;;;;;;9.00;9.00;;;;;9.80;100.00;102587.03;5082940;27;47295;-78
2024/01/30 03:36:25;;;;;;;;;10.33;9.67;;;;;9.29;100.00;102505.03;5079296;27;45423;-78
2024/01/30 03:38:51;;;;;;;;;10.67;10.67;;;;;9.50;100.00;102532.00;5086918;27;45684;-78
2024/01/30 03:41:16;;;;;;;;;10.00;10.00;;;;;9.70;100.00;102578.38;5064771;28;45511;-78
2024/01/30 03:43:42;;;;;;;;;10.00;9.00;;;;;8.92;100.00;102456.31;5093076;27;46103;-79
2024/01/30 03:46:07;;;;;;;;;7.33;7.00;;;;;9.30;100.00;102538.47;5094708;27;45361;-79
2024/01/30 03:48:33;;;;;;;;;10.00;9.00;;;;;9.57;100.00;102558.31;5096122;27;45509;-78
2024/01/30 03:50:58;;;;;;;;;10.33;9.67;;;;;8.96;100.00;102479.13;5084213;27;45369;-79
2024/01/30 03:53:24;;;;;;;;;10.33;8.00;;;;;9.17;100.00;102489.38;5085289;27;45719;-79
2024/01/30 03:55:52;;;;;;;;;8.67;8.67;;;;;9.20;100.00;102506.91;5095846;27;45298;-78
2024/01/30 03:58:17;;;;;;;;;8.67;8.33;;;;;9.24;100.00;102500.72;5095715;27;45536;-78
2024/01/30 04:00:42;;;;;;;;;13.33;9.33;;;;;9.06;100.00;102485.16;5084675;27;45429;-78
2024/01/30 04:03:08;;;;;;;;;12.33;10.00;;;;;9.01;100.00;102468.50;5086674;27;46440;-79
2024/01/30 04:05:33;;;;;;;;;12.67;11.67;;;;;8.97;100.00;102446.53;5077298;27;45351;-79
2024/01/30 04:08:01;;;;;;;;;9.33;9.33;;;;;8.92;100.00;102455.44;5092482;27;45450;-79
2024/01/30 04:10:27;;;;;;;;;12.33;10.67;;;;;8.97;100.00;102464.13;5093756;27;45473;-79
2024/01/30 04:12:53;;;;;;;;;12.67;9.00;;;;;9.22;100.00;102534.19;5081036;27;45277;-79
2024/01/30 04:15:19;;;;;;;;;14.00;10.67;;;;;9.58;100.00;102575.91;5092851;27;45311;-78
2024/01/30 04:17:44;;;;;;;;;12.33;8.67;;;;;9.13;100.00;102487.66;5060091;28;45802;-78
2024/01/30 04:20:19;;;;;;;;;11.00;10.00;;;;;8.80;100.00;102420.41;5075477;27;45542;-79
2024/01/30 04:22:45;;;;;;;;;12.33;10.00;;;;;9.12;100.00;102499.13;5076284;28;45424;-79
2024/01/30 04:25:14;;;;;;;;;12.33;10.00;;;;;9.66;100.00;102571.38;5080710;27;45301;-79
2024/01/30 04:27:42;;;;;;;;;10.00;8.67;;;;;8.79;100.00;102433.63;5075799;27;45369;-79
2024/01/30 04:30:10;;;;;;;;;11.67;9.00;;;;;9.31;100.00;102483.88;5081355;27;45459;-79
2024/01/30 04:32:36;;;;;;;;;15.67;11.33;;;;;9.07;100.00;102444.66;5066196;28;47050;-79
2024/01/30 04:35:05;;;;;;;;;10.00;10.00;;;;;9.29;100.00;102472.50;5082777;27;45501;-78
2024/01/30 04:37:31;;;;;;;;;11.00;11.00;;;;;9.63;100.00;102533.56;5068367;27;45386;-78
2024/01/30 04:39:56;;;;;;;;;11.67;10.00;;;;;9.39;100.00;102489.94;5064460;27;45328;-78
2024/01/30 04:42:22;;;;;;;;;9.67;9.00;;;;;9.22;100.00;102490.19;5080828;27;45835;-79
2024/01/30 04:44:47;;;;;;;;;9.67;7.67;;;;;9.04;100.00;102442.06;5092498;27;45527;-78
2024/01/30 04:47:12;;;;;;;;;12.00;10.33;;;;;9.49;100.00;102506.50;5089428;27;45367;-78
2024/01/30 04:49:39;;;;;;;;;12.00;8.67;;;;;9.58;100.00;102552.16;5076231;27;45486;-78
2024/01/30 04:52:05;;;;;;;;;9.00;9.00;;;;;9.79;100.00;102550.91;5064968;28;48263;-78
2024/01/30 04:54:34;;;;;;;;;16.00;11.67;;;;;9.39;100.00;102509.28;5087485;27;45240;-78
2024/01/30 04:57:00;;;;;;;;;12.33;10.33;;;;;9.49;100.00;102502.06;5070147;27;45485;-78
2024/01/30 04:59:25;;;;;;;;;12.33;11.33;;;;;9.26;100.00;102478.66;5092621;27;45521;-78
2024/01/30 05:01:50;;;;;;;;;8.00;7.33;;;;;9.35;100.00;102477.69;5080006;27;45305;-78
2024/01/30 05:04:16;;;;;;;;;10.33;10.33;;;;;9.43;100.00;102496.91;5083608;27;45508;-79
2024/01/30 05:06:41;;;;;;;;;14.00;10.00;;;;;9.19;100.00;102445.38;5088461;27;45470;-78
2024/01/30 05:09:07;;;;;;;;;13.00;11.00;;;;;9.55;100.00;102516.97;5060490;28;45578;-78
2024/01/30 05:11:39;;;;;;;;;10.67;10.00;;;;;9.49;100.00;102512.66;5060882;28;46343;-78
2024/01/30 05:14:05;;;;;;;;;9.67;9.67;;;;;9.37;100.00;102495.22;5070650;28;45430;-78
2024/01/30 05:16:31;;;;;;;;;15.00;14.67;;;;;9.22;100.00;102484.03;5077813;28;45409;-78
2024/01/30 05:18:57;;;;;;;;;11.67;11.00;;;;;9.57;100.00;102531.91;5078632;28;45250;-78
2024/01/30 05:21:22;;;;;;;;;14.00;14.00;;;;;9.93;100.00;102625.59;5060751;28;45352;-78
2024/01/30 05:23:47;;;;;;;;;15.00;12.00;;;;;9.54;100.00;102573.34;5067871;28;45463;-79
2024/01/30 05:26:12;;;;;;;;;14.67;11.00;;;;;9.48;100.00;102561.09;5079132;28;45379;-78
2024/01/30 05:28:38;;;;;;;;;14.33;11.67;;;;;9.25;100.00;102500.72;5078773;28;45844;-78
2024/01/30 05:31:03;;;;;;;;;17.67;13.67;;;;;9.30;100.00;102542.84;5081691;28;46108;-78
2024/01/30 05:33:29;;;;;;;;;15.00;11.33;;;;;9.25;100.00;102502.47;5063080;28;45551;-78
2024/01/30 05:35:54;;;;;;;;;10.67;10.67;;;;;9.43;100.00;102539.16;5080730;28;45305;-78
2024/01/30 05:38:20;;;;;;;;;12.67;10.67;;;;;9.40;100.00;102549.75;5061391;28;45533;-78
2024/01/30 05:40:45;;;;;;;;;10.00;10.00;;;;;9.82;100.00;102595.78;5078759;28;46293;-78
2024/01/30 05:43:11;;;;;;;;;12.67;11.00;;;;;9.28;100.00;102508.56;5078143;28;45346;-79
2024/01/30 05:45:37;;;;;;;;;10.00;9.33;;;;;9.28;100.00;102516.50;5078799;28;45417;-79
2024/01/30 05:48:05;;;;;;;;;12.00;10.67;;;;;9.64;100.00;102562.63;5081601;28;45367;-79
2024/01/30 05:50:31;;;;;;;;;13.33;11.00;;;;;9.67;100.00;102603.97;5081734;28;45607;-79
2024/01/30 05:52:59;;;;;;;;;14.00;10.00;;;;;9.50;100.00;102539.94;5081725;28;45298;-79
2024/01/30 05:55:28;;;;;;;;;12.00;10.67;;;;;9.58;100.00;102552.16;5082446;28;45306;-79
2024/01/30 05:57:56;;;;;;;;;15.67;10.67;;;;;10.15;100.00;102652.56;5063207;28;45510;-78
2024/01/30 06:00:25;;;;;;;;;8.00;8.00;;;;;9.59;100.00;102566.19;5063100;28;46362;-79
2024/01/30 06:02:52;;;;;;;;;16.00;10.67;;;;;10.02;100.00;102613.97;5062691;28;45328;-79
2024/01/30 06:05:24;;;;;;;;;14.33;12.33;;;;;10.20;100.00;102648.97;5060114;28;45381;-79
2024/01/30 06:08:03;;;;;;;;;8.67;7.67;;;;;9.39;100.00;102540.13;5079722;27;45388;-79
2024/01/30 06:10:42;;;;;;;;;14.67;13.67;;;;;10.09;100.00;102642.06;5075777;28;46775;-79
2024/01/30 06:13:13;;;;;;;;;14.67;11.00;;;;;10.12;100.00;102636.72;5067031;28;45323;-79
2024/01/30 06:15:40;;;;;;;;;11.00;11.00;;;;;9.70;100.00;102545.78;5072221;27;45388;-79
2024/01/30 06:18:12;;;;;;;;;15.00;15.00;;;;;9.66;100.00;102562.56;5068055;28;45864;-79
2024/01/30 06:20:40;;;;;;;;;8.33;6.67;;;;;10.35;100.00;102666.34;5073660;27;46342;-79
2024/01/30 06:23:15;;;;;;;;;18.00;12.33;;;;;9.93;100.00;102573.59;5066437;27;45485;-79
2024/01/30 06:25:41;;;;;;;;;11.00;11.00;;;;;9.98;100.00;102564.72;5076341;27;45465;-78
2024/01/30 06:28:11;;;;;;;;;14.67;10.67;;;;;10.23;100.00;102613.69;5081378;27;46022;-79
2024/01/30 06:30:36;;;;;;;;;17.00;14.67;;;;;9.56;100.00;102524.88;5083601;27;45395;-79
2024/01/30 06:33:06;;;;;;;;;18.33;14.00;;;;;10.32;100.00;102640.84;5089847;27;45533;-79
2024/01/30 06:35:42;;;;;;;;;16.00;10.67;;;;;9.72;100.00;102551.91;5103428;27;45518;-79
2024/01/30 06:38:10;;;;;;;;;10.00;9.00;;;;;10.18;100.00;102626.97;5075024;27;45391;-79
2024/01/30 06:40:36;;;;;;;;;9.67;9.67;;;;;10.14;100.00;102629.69;5069439;28;47176;-79
2024/01/30 06:43:04;;;;;;;;;15.00;12.00;;;;;9.73;100.00;102553.66;5086423;27;45502;-79
2024/01/30 06:45:29;;;;;;;;;14.33;11.67;;;;;10.08;100.00;102579.53;5090168;27;45374;-79
2024/01/30 06:47:55;;;;;;;;;9.33;9.33;;;;;10.10;100.00;102596.25;5093555;27;45466;-79
2024/01/30 06:50:23;;;;;;;;;14.67;14.00;;;;;9.85;100.00;102529.66;5087865;27;45721;-79
2024/01/30 06:52:49;;;;;;;;;13.67;11.67;;;;;10.67;100.00;102679.03;5058805;28;45401;-79
2024/01/30 06:55:16;;;;;;;;;16.67;12.00;;;;;10.40;100.00;102630.13;5071942;28;45621;-79
2024/01/30 06:57:47;;;;;;;;;14.33;12.67;;;;;9.96;100.00;102551.53;5092775;27;45391;-79
2024/01/30 07:00:14;;;;;;;;;17.00;13.67;;;;;10.77;100.00;102710.59;5079665;27;46856;-79
2024/01/30 07:02:42;;;;;;;;;16.67;12.33;;;;;10.25;100.00;102609.22;5093113;27;45736;-79
2024/01/30 07:05:08;;;;;;;;;18.00;13.33;;;;;10.40;100.00;102606.34;5088949;27;45546;-78
2024/01/30 07:07:38;;;;;;;;;14.00;12.67;;;;;10.42;100.00;102601.88;5074708;27;45375;-78
2024/01/30 07:10:05;;;;;;;;;19.67;17.67;;;;;10.92;100.00;102698.88;5084215;27;47779;-78
2024/01/30 07:12:31;;;;;;;;;18.00;14.33;;;;;10.54;100.00;102643.97;5073611;27;45357;-78
2024/01/30 07:14:56;;;;;;;;;14.00;12.00;;;;;10.52;100.00;102621.97;5095996;27;45459;-77
2024/01/30 07:17:21;;;;;;;;;16.33;15.00;;;;;10.47;100.00;102599.16;5077257;28;45346;-78
2024/01/30 07:19:47;;;;;;;;;17.00;14.33;;;;;10.73;100.00;102634.81;5098680;27;45489;-77
2024/01/30 07:22:12;;;;;;;;;17.00;11.00;;;;;11.15;100.00;102703.75;5081707;27;45891;-78
2024/01/30 07:24:44;;;;;;;;;16.67;14.67;;;;;11.16;100.00;102705.50;5099024;27;45308;-78
2024/01/30 07:27:10;;;;;;;;;14.33;11.67;;;;;11.04;100.00;102681.88;5086005;27;45402;-78
2024/01/30 07:29:35;;;;;;;;;15.33;15.33;;;;;10.64;100.00;102629.69;5092854;27;45332;-77
2024/01/30 07:32:01;;;;;;;;;18.00;15.67;;;;;11.27;100.00;102722.91;5096325;27;45327;-77
2024/01/30 07:34:27;;;;;;;;;17.33;15.00;;;;;10.45;100.00;102604.47;5093442;27;45980;-77
2024/01/30 07:36:52;;;;;;;;;13.33;12.33;;;;;10.76;100.00;102642.72;5096578;27;45304;-78
2024/01/30 07:39:20;;;;;;;;;18.33;16.00;;;;;10.92;100.00;102649.47;5084664;27;55832;-77
2024/01/30 07:41:46;;;;;;;;;17.33;16.00;;;;;11.18;100.00;102693.97;5080689;27;45473;-77
2024/01/30 07:44:11;;;;;;;;;13.33;12.00;;;;;10.92;100.00;102657.41;5080611;27;45603;-77
2024/01/30 07:46:37;;;;;;;;;18.67;13.00;;;;;11.22;100.00;102716.81;5064209;28;45372;-78
2024/01/30 07:49:04;;;;;;;;;16.00;15.33;;;;;11.16;100.00;102737.28;5080366;27;45412;-78
2024/01/30 07:51:32;;;;;;;;;15.67;13.00;;;;;11.10;100.00;102700.28;5078320;27;45472;-77
2024/01/30 07:53:58;;;;;;;;;13.33;13.33;;;;;11.03;100.00;102686.28;5079674;27;45431;-77
2024/01/30 07:56:23;;;;;;;;;17.00;14.00;;;;;11.24;100.00;102717.69;5080385;28;45401;-77
2024/01/30 07:58:48;;;;;;;;;19.00;13.67;;;;;11.34;100.00;102739.56;5084349;27;46195;-77
2024/01/30 08:01:15;;;;;;;;;18.00;13.33;;;;;11.36;100.00;102717.44;5084292;27;46774;-77
2024/01/30 08:03:41;;;;;;;;;20.00;16.00;;;;;11.46;100.00;102747.25;5076897;27;45350;-77
2024/01/30 08:06:07;;;;;;;;;14.67;12.00;;;;;11.48;100.00;102745.47;5077342;27;45671;-77
2024/01/30 08:08:32;;;;;;;;;18.00;14.00;;;;;11.42;100.00;102734.97;5076265;27;45660;-76
2024/01/30 08:10:58;;;;;;;;;14.67;13.33;;;;;11.42;100.00;102737.63;5082459;27;45395;-77
2024/01/30 08:13:23;;;;;;;;;19.67;15.67;;;;;11.55;100.00;102751.53;5078463;27;45521;-76
2024/01/30 08:15:48;;;;;;;;;15.33;14.00;;;;;11.64;100.00;102768.13;5067718;27;45674;-76
2024/01/30 08:18:14;;;;;;;;;18.00;16.00;;;;;11.52;100.00;102768.34;5080975;27;51758;-76
2024/01/30 08:20:39;;;;;;;;;18.33;16.00;;;;;11.52;100.00;102748.94;5068157;27;45475;-76
2024/01/30 08:23:16;;;;;;;;;12.67;12.33;;;;;11.73;100.00;102775.91;5067830;28;45438;-76
2024/01/30 08:25:41;;;;;;;;;12.67;11.00;;;;;11.68;100.00;102766.28;5068985;28;45373;-77
2024/01/30 08:28:07;;;;;;;;;16.67;13.33;;;;;11.62;100.00;102748.69;5082772;27;45968;-76
2024/01/30 08:30:32;;;;;;;;;14.00;10.67;;;;;11.77;100.00;102777.59;5080689;27;45517;-76
2024/01/30 08:33:01;;;;;;;;;14.33;13.00;;;;;11.68;100.00;102756.53;5090648;27;45722;-76
2024/01/30 08:35:26;;;;;;;;;20.00;16.00;;;;;11.72;100.00;102770.63;5085399;27;45465;-76
2024/01/30 08:37:54;;;;;;;;;14.67;14.00;;;;;11.72;100.00;102773.28;5083158;27;45367;-76
2024/01/30 08:40:19;;;;;;;;;15.67;13.33;;;;;11.79;100.00;102782.84;5083998;27;45466;-77
2024/01/30 08:42:44;;;;;;;;;21.67;16.00;;;;;11.85;100.00;102798.63;5089879;27;45284;-77
2024/01/30 08:45:10;;;;;;;;;20.00;16.33;;;;;11.88;100.00;102793.25;5081300;27;45353;-77
2024/01/30 08:47:35;;;;;;;;;12.67;12.67;;;;;11.81;100.00;102792.50;5079267;27;45381;-76
2024/01/30 08:50:00;;;;;;;;;14.00;13.67;;;;;11.86;100.00;102795.97;5061303;28;45397;-77
2024/01/30 08:52:26;;;;;;;;;13.00;12.00;;;;;11.89;100.00;102789.72;5069229;27;45828;-77
2024/01/30 08:54:51;;;;;;;;;17.33;15.67;;;;;12.00;100.00;102825.72;5079363;27;45454;-77
2024/01/30 08:57:17;;;;;;;;;15.00;11.67;;;;;12.02;100.00;102821.25;5062216;27;46682;-77
2024/01/30 08:59:44;;;;;;;;;20.67;14.33;;;;;11.91;100.00;102798.53;5086305;27;45464;-77
2024/01/30 09:02:12;;;;;;;;;13.67;13.33;;;;;11.82;100.00;102788.09;5082424;27;45451;-77
2024/01/30 09:04:37;;;;;;;;;14.33;13.33;;;;;12.06;100.00;102826.47;5062172;28;45429;-77
2024/01/30 09:07:05;;;;;;;;;20.00;17.67;;;;;12.07;100.00;102828.25;5070223;27;45415;-76
2024/01/30 09:09:30;;;;;;;;;14.67;14.67;;;;;12.02;100.00;102813.28;5078567;27;45299;-77
2024/01/30 09:11:55;;;;;;;;;15.00;12.67;;;;;12.03;100.00;102824.78;5056747;28;45356;-77
2024/01/30 09:14:21;;;;;;;;;13.33;11.00;;;;;11.98;100.00;102814.25;5078320;28;45299;-77
2024/01/30 09:16:48;;;;;;;;;14.33;13.33;;;;;12.11;100.00;102829.91;5078748;28;45476;-77
2024/01/30 09:19:13;;;;;;;;;14.33;12.00;;;;;12.09;100.00;102835.25;5076395;28;45452;-77
2024/01/30 09:21:38;;;;;;;;;14.67;11.00;;;;;11.98;100.00;102816.03;5060759;28;45337;-77
2024/01/30 09:24:04;;;;;;;;;14.00;12.00;;;;;12.01;100.00;102816.84;5078241;28;48161;-77
2024/01/30 09:26:29;;;;;;;;;16.00;12.50;;;;;12.20;100.00;102845.66;5078083;28;45351;-77
2024/01/30 09:28:55;;;;;;;;;15.67;11.67;;;;;12.13;100.00;102836.94;5081244;28;45531;-76
2024/01/30 09:31:20;;;;;;;;;12.67;9.33;;;;;12.17;100.00;102840.41;5080457;28;45382;-77
2024/01/30 09:33:47;;;;;;;;;13.67;12.00;;;;;12.14;100.00;102837.81;5079543;28;45488;-77
2024/01/30 09:36:15;;;;;;;;;9.33;9.00;;;;;12.13;100.00;102841.38;5062897;28;47354;-76
2024/01/30 09:38:40;;;;;;;;;14.00;10.33;;;;;12.28;100.00;102870.22;5078350;28;45395;-76
2024/01/30 09:41:09;;;;;;;;;10.00;10.00;;;;;12.09;100.00;102837.91;5078765;28;45351;-76
2024/01/30 09:43:34;;;;;;;;;8.67;8.67;;;;;12.24;100.00;102857.91;5070978;28;45427;-76
2024/01/30 09:46:03;;;;;;;;;13.67;13.00;;;;;12.14;100.00;102837.81;5067560;28;45620;-76
2024/01/30 09:48:30;;;;;;;;;13.00;10.00;;;;;12.29;100.00;102862.25;5075645;28;45309;-76
2024/01/30 09:50:57;;;;;;;;;16.67;11.00;;;;;12.37;100.00;102859.41;5077113;28;45387;-76
2024/01/30 09:53:22;;;;;;;;;15.00;13.67;;;;;12.43;100.00;102872.56;5056313;28;45527;-76
2024/01/30 09:55:50;;;;;;;;;11.33;10.00;;;;;12.45;100.00;102861.00;5051526;28;45512;-76
2024/01/30 09:58:19;;;;;;;;;8.67;8.67;;;;;12.53;100.00;102867.00;5072800;28;45377;-76
2024/01/30 10:00:45;;;;;;;;;16.00;12.33;;;;;12.58;100.00;102888.13;5069867;28;45368;-76
2024/01/30 10:03:10;;;;;;;;;15.00;13.00;;;;;12.60;100.00;102861.56;5076544;28;45673;-76
2024/01/30 10:05:37;;;;;;;;;13.00;10.00;;;;;12.62;100.00;102857.97;5077697;28;45919;-75
2024/01/30 10:08:08;;;;;;;;;12.33;10.67;;;;;12.64;100.00;102856.13;5080384;27;45473;-76
2024/01/30 10:10:33;;;;;;;;;9.33;7.33;;;;;12.78;100.00;102874.41;5079790;27;45387;-75
2024/01/30 10:12:58;;;;;;;;;6.67;6.67;;;;;12.86;100.00;102891.06;5096831;27;45581;-76
2024/01/30 10:15:25;;;;;;;;;13.00;8.00;;;;;12.86;100.00;102870.66;5079551;27;46841;-76
2024/01/30 10:17:51;;;;;;;;;9.33;7.33;;;;;12.99;100.00;102889.81;5096797;27;45556;-76
2024/01/30 10:20:17;;;;;;;;;7.00;7.00;;;;;12.98;100.00;102883.66;5098299;27;45322;-76
2024/01/30 10:22:44;;;;;;;;;8.67;7.00;;;;;13.11;100.00;102902.88;5097998;27;45551;-76
2024/01/30 10:25:10;;;;;;;;;13.33;11.00;;;;;12.91;100.00;102862.59;5098062;27;46262;-76
2024/01/30 10:27:36;;;;;;;;;12.33;9.33;;;;;12.62;100.00;102831.41;5100017;27;45359;-76
2024/01/30 10:30:01;;;;;;;;;7.33;6.33;;;;;13.18;100.00;102900.94;5099859;27;45385;-76
2024/01/30 10:32:26;;;;;;;;;8.00;8.00;;;;;13.22;100.00;102902.63;5098394;27;45317;-75
2024/01/30 10:34:52;;;;;;;;;9.33;6.00;;;;;13.26;100.00;102904.25;5102196;27;45703;-75
2024/01/30 10:37:19;;;;;;;;;8.00;7.33;;;;;13.29;100.00;102905.06;5102973;27;45332;-76
2024/01/30 10:39:46;;;;;;;;;11.33;7.33;;;;;13.29;100.00;102907.72;5083785;27;45395;-76
2024/01/30 10:42:13;;;;;;;;;7.33;5.00;;;;;13.22;100.00;102900.81;5101843;27;45520;-76
2024/01/30 10:45:00;;;;;;;;;12.00;7.00;;;;;13.11;100.00;102886.03;5101414;27;46052;-76
2024/01/30 10:47:27;;;;;;;;;5.00;5.00;;;;;13.07;100.00;102904.69;5099351;27;45540;-76
2024/01/30 10:49:54;;;;;;;;;7.00;7.00;;;;;13.10;100.00;102900.22;5101498;27;45396;-76
2024/01/30 10:52:20;;;;;;;;;9.00;7.00;;;;;13.25;100.00;102937.09;5093823;27;45508;-76
2024/01/30 10:54:47;;;;;;;;;6.33;6.00;;;;;12.81;100.00;102875.22;5101174;27;45507;-76
2024/01/30 10:57:15;;;;;;;;;9.33;5.33;;;;;13.07;100.00;102903.81;5101008;27;45261;-76
2024/01/30 10:59:42;;;;;;;;;8.67;7.00;;;;;12.99;100.00;102898.66;5082496;27;45313;-76
2024/01/30 11:02:09;;;;;;;;;10.33;9.33;;;;;13.18;100.00;102931.03;5082511;27;45404;-76
2024/01/30 11:04:40;;;;;;;;;8.33;5.33;;;;;13.19;100.00;102931.88;5084649;27;45305;-76